This is the latest recevied weather packets stored in our database for station/object KE0PRS. If no packets are shown the sender has not sent any weather packets the latest 10 day(s).
| Time | Temp. | Humidity | Pressure | Rain* | Wind** | Luminosity | Snow |
|---|---|---|---|---|---|---|---|
| 1777655575 | 17.22° C | 46% | 1020.4 hPa | 0 mm | - | 819 W/m² | - |
| 1777655271 | 17.78° C | 46% | 1020.6 hPa | 0 mm | - | 375 W/m² | - |
| 1777654969 | 17.22° C | 45% | 1020.7 hPa | 0 mm | - | 743 W/m² | - |
| 1777654666 | 17.22° C | 45% | 1020.8 hPa | 0 mm | - | 743 W/m² | - |
| 1777654364 | 16.67° C | 45% | 1020.7 hPa | 0 mm | - | 522 W/m² | - |
| 1777654062 | 17.22° C | 48% | 1020.9 hPa | 0 mm | - | 248 W/m² | - |
| 1777653758 | 16.67° C | 47% | 1020.7 hPa | 0 mm | - | 751 W/m² | - |
| 1777653454 | 16.67° C | 47% | 1020.8 hPa | 0 mm | - | 698 W/m² | - |
| 1777653152 | 16.67° C | 48% | 1020.9 hPa | 0 mm | - | 669 W/m² | - |
| 1777652847 | 16.67° C | 48% | 1020.6 hPa | 0 mm | - | 656 W/m² | - |
| 1777652544 | 17.22° C | 48% | 1020.7 hPa | 0 mm | - | 635 W/m² | - |
| 1777652241 | 16.67° C | 50% | 1020.7 hPa | 0 mm | - | 623 W/m² | - |
| 1777651938 | 16.11° C | 49% | 1020.8 hPa | 0 mm | - | 611 W/m² | - |
| 1777651635 | 15.56° C | 50% | 1020.8 hPa | 0 mm | - | 598 W/m² | - |
| 1777651332 | 15.56° C | 51% | 1020.8 hPa | 0 mm | - | 585 W/m² | - |
| 1777651029 | 15.56° C | 51% | 1020.9 hPa | 0 mm | - | 568 W/m² | - |
| 1777650726 | 16.11° C | 52% | 1020.9 hPa | 0 mm | - | 559 W/m² | - |
| 1777650423 | 15.56° C | 54% | 1020.8 hPa | 0 mm | - | 545 W/m² | - |
| 1777650120 | 15.56° C | 54% | 1020.9 hPa | 0 mm | - | 531 W/m² | - |
| 1777649817 | 15° C | 55% | 1020.7 hPa | 0 mm | - | 516 W/m² | - |
| 1777649514 | 15° C | 53% | 1020.8 hPa | 0 mm | - | 500 W/m² | - |
| 1777649210 | 14.44° C | 55% | 1020.7 hPa | 0 mm | - | 486 W/m² | - |
| 1777648907 | 13.89° C | 55% | 1020.6 hPa | 0 mm | - | 368 W/m² | - |
| 1777648605 | 13.89° C | 55% | 1020.9 hPa | 0 mm | - | 405 W/m² | - |
| 1777648301 | 13.33° C | 58% | 1020.8 hPa | 0 mm | - | 449 W/m² | - |
* Rain latest hour (hover to see other rain measurements)
** Current wind speed in m/s (hover to see current wind gust speed)